Time;durP1;ratioP1;P1;durP2;ratioP2;P2;SDS_P1;SDS_P2;PMS_P1;PMS_P2;Temp;Humidity;BMP_temperature;BMP_pressure;BME280_temperature;BME280_humidity;BME280_pressure;Samples;Min_cycle;Max_cycle;Signal;HPM_P1;HPM_P2
2023/05/08 00:02:10;;;;;;;5.77;5.27;;;10.90;99.90;;;;;;5076147;28;20517;-68
2023/05/08 00:04:36;;;;;;;5.87;5.30;;;10.90;99.90;;;;;;5076065;28;20482;-68
2023/05/08 00:07:05;;;;;;;6.00;5.50;;;11.00;99.90;;;;;;5075432;28;20981;-68
2023/05/08 00:09:32;;;;;;;5.43;5.03;;;11.00;99.90;;;;;;5076231;28;20515;-68
2023/05/08 00:11:58;;;;;;;5.60;5.10;;;10.90;99.90;;;;;;5075703;28;20454;-68
2023/05/08 00:14:25;;;;;;;6.50;5.90;;;10.80;99.90;;;;;;5075367;28;20468;-68
2023/05/08 00:16:52;;;;;;;6.10;5.17;;;10.70;99.90;;;;;;5075245;28;20458;-68
2023/05/08 00:19:19;;;;;;;6.17;5.40;;;10.70;99.90;;;;;;5076323;28;20571;-68
2023/05/08 00:21:46;;;;;;;5.70;4.93;;;10.70;99.90;;;;;;5076238;28;20533;-68
2023/05/08 00:24:14;;;;;;;6.57;5.60;;;10.60;99.90;;;;;;5075782;28;20464;-68
2023/05/08 00:26:43;;;;;;;5.40;5.00;;;10.60;99.90;;;;;;5076318;28;20486;-68
2023/05/08 00:29:10;;;;;;;6.10;5.50;;;10.60;99.90;;;;;;5077107;28;20486;-68
2023/05/08 00:31:37;;;;;;;6.43;5.83;;;10.60;99.90;;;;;;5078059;28;20496;-68
2023/05/08 00:34:03;;;;;;;5.80;5.27;;;10.50;99.90;;;;;;5078514;28;20454;-68
2023/05/08 00:36:31;;;;;;;6.30;5.70;;;10.50;99.90;;;;;;5076240;28;20450;-68
2023/05/08 00:38:57;;;;;;;6.80;5.70;;;10.40;99.90;;;;;;5076710;28;20482;-68
2023/05/08 00:41:26;;;;;;;7.73;5.93;;;10.30;99.90;;;;;;5076745;28;20458;-68
2023/05/08 00:43:52;;;;;;;6.83;6.10;;;10.30;99.90;;;;;;5075823;28;20468;-68
2023/05/08 00:46:19;;;;;;;6.70;5.97;;;10.30;99.90;;;;;;5075028;28;20486;-68
2023/05/08 00:48:46;;;;;;;6.20;5.60;;;10.30;99.90;;;;;;5076244;28;20533;-68
2023/05/08 00:51:15;;;;;;;7.03;6.17;;;10.30;99.90;;;;;;5077946;28;20466;-68
2023/05/08 00:53:45;;;;;;;6.73;6.07;;;10.20;99.90;;;;;;5078131;28;20464;-68
2023/05/08 00:56:14;;;;;;;6.53;5.97;;;10.10;99.90;;;;;;5078974;28;20438;-68
2023/05/08 00:58:43;;;;;;;7.90;6.10;;;10.10;99.90;;;;;;5078538;28;20549;-68
2023/05/08 01:01:11;;;;;;;6.00;5.50;;;10.00;99.90;;;;;;5078916;28;20464;-68
2023/05/08 01:03:38;;;;;;;6.20;5.60;;;10.00;99.90;;;;;;5078568;28;20597;-68
2023/05/08 01:06:06;;;;;;;6.13;5.63;;;10.00;99.90;;;;;;5078636;28;20958;-68
2023/05/08 01:08:33;;;;;;;6.80;6.20;;;10.10;99.90;;;;;;5077714;28;20488;-68
2023/05/08 01:11:11;;;;;;;6.77;6.07;;;10.00;99.90;;;;;;5078369;28;20541;-68
2023/05/08 01:13:51;;;;;;;6.63;6.03;;;9.90;99.90;;;;;;5078404;28;20449;-68
2023/05/08 01:16:26;;;;;;;6.20;5.60;;;10.00;99.90;;;;;;5078630;28;20438;-68
2023/05/08 01:18:59;;;;;;;6.30;5.70;;;10.10;99.90;;;;;;5081084;28;20534;-68
2023/05/08 01:21:34;;;;;;;6.90;5.70;;;10.10;99.90;;;;;;5083054;28;20449;-68
2023/05/08 01:24:23;;;;;;;7.70;6.03;;;10.10;99.90;;;;;;5087010;28;20430;-68
2023/05/08 01:27:40;;;;;;;6.60;6.00;;;10.00;99.90;;;;;;5082594;28;20541;-68
2023/05/08 01:30:31;;;;;;;7.00;6.30;;;9.90;99.90;;;;;;5016146;28;20443;-68
2023/05/08 01:33:05;;;;;;;6.47;5.87;;;10.00;99.90;;;;;;5077955;28;20438;-68
2023/05/08 01:35:39;;;;;;;6.90;6.13;;;10.00;99.90;;;;;;5077770;28;20528;-68
2023/05/08 01:38:10;;;;;;;6.00;5.40;;;10.00;99.90;;;;;;5077063;28;20477;-68
2023/05/08 01:40:48;;;;;;;6.67;5.80;;;9.80;99.90;;;;;;5077574;28;20806;-68
2023/05/08 01:43:25;;;;;;;7.00;6.30;;;9.80;99.90;;;;;;5077584;28;20439;-68
2023/05/08 01:45:54;;;;;;;7.00;5.90;;;9.90;99.90;;;;;;5077035;28;20476;-68
2023/05/08 01:48:26;;;;;;;6.90;6.20;;;9.90;99.90;;;;;;5077375;28;20545;-68
2023/05/08 01:50:58;;;;;;;5.63;5.00;;;9.90;99.90;;;;;;5077613;28;20529;-68
2023/05/08 01:53:30;;;;;;;6.30;5.70;;;9.90;99.90;;;;;;5077451;28;20455;-68
2023/05/08 01:56:00;;;;;;;7.93;5.70;;;9.90;99.90;;;;;;5077481;28;20479;-68
2023/05/08 01:58:28;;;;;;;6.37;5.77;;;9.90;99.90;;;;;;5077028;28;20443;-69
2023/05/08 02:00:58;;;;;;;8.80;5.97;;;9.90;99.90;;;;;;5077109;28;20797;-68
2023/05/08 02:03:28;;;;;;;6.40;5.70;;;9.90;99.90;;;;;;5076946;28;20758;-68
2023/05/08 02:05:57;;;;;;;6.50;5.90;;;9.80;99.90;;;;;;5076732;28;20482;-68
2023/05/08 02:08:26;;;;;;;7.03;6.33;;;9.80;99.90;;;;;;5076377;28;20465;-68
2023/05/08 02:10:54;;;;;;;6.37;5.87;;;9.80;99.90;;;;;;5076452;28;20458;-68
2023/05/08 02:13:22;;;;;;;6.97;6.37;;;9.80;99.90;;;;;;5076461;28;20545;-68
2023/05/08 02:15:53;;;;;;;8.30;6.30;;;9.70;99.90;;;;;;5076386;28;20501;-68
2023/05/08 02:18:21;;;;;;;7.27;6.57;;;9.70;99.90;;;;;;5076274;28;20879;-68
2023/05/08 02:20:51;;;;;;;7.60;6.10;;;9.60;99.90;;;;;;5076056;28;20454;-68
2023/05/08 02:23:20;;;;;;;6.93;6.10;;;9.60;99.90;;;;;;5076043;28;20458;-68
2023/05/08 02:25:48;;;;;;;8.00;7.30;;;9.60;99.90;;;;;;5076119;28;20465;-67
2023/05/08 02:28:16;;;;;;;7.10;6.40;;;9.60;99.90;;;;;;5076019;28;20458;-67
2023/05/08 02:30:43;;;;;;;7.50;6.80;;;9.60;99.90;;;;;;5076124;28;20454;-68
2023/05/08 02:33:13;;;;;;;7.53;6.83;;;9.50;99.90;;;;;;5076292;28;20785;-68
2023/05/08 02:35:43;;;;;;;8.53;6.57;;;9.60;99.90;;;;;;5076087;28;20523;-68
2023/05/08 02:38:13;;;;;;;8.77;6.23;;;9.60;99.90;;;;;;5075523;28;20977;-67
2023/05/08 02:40:46;;;;;;;6.57;5.87;;;9.50;99.90;;;;;;5075209;28;20919;-67
2023/05/08 02:43:13;;;;;;;6.27;5.67;;;9.50;99.90;;;;;;5075633;28;20449;-68
2023/05/08 02:45:46;;;;;;;9.00;6.73;;;9.50;99.90;;;;;;5075673;28;20777;-68
2023/05/08 02:48:22;;;;;;;6.63;5.97;;;9.60;99.90;;;;;;5075355;28;20515;-68
2023/05/08 02:50:58;;;;;;;8.70;6.47;;;9.60;99.90;;;;;;5075417;28;20458;-68
2023/05/08 02:53:34;;;;;;;7.40;6.70;;;9.50;99.90;;;;;;5076068;28;20781;-68
2023/05/08 02:56:08;;;;;;;7.03;5.67;;;9.50;99.90;;;;;;5075552;28;20452;-68
2023/05/08 02:58:41;;;;;;;7.03;6.33;;;9.30;99.90;;;;;;5075488;28;20443;-68
2023/05/08 03:01:18;;;;;;;7.10;6.00;;;9.30;99.90;;;;;;5075090;28;20442;-67
2023/05/08 03:03:49;;;;;;;7.53;6.90;;;9.30;99.90;;;;;;5075023;28;20503;-68
2023/05/08 03:06:20;;;;;;;6.90;6.20;;;9.30;99.90;;;;;;5074910;28;20466;-69
2023/05/08 03:08:50;;;;;;;10.73;6.10;;;9.30;99.90;;;;;;5075326;28;20456;-67
2023/05/08 03:11:21;;;;;;;7.67;6.87;;;9.30;99.90;;;;;;5074766;28;20469;-68
2023/05/08 03:13:49;;;;;;;7.10;6.40;;;9.20;99.90;;;;;;5075307;28;20529;-67
2023/05/08 03:16:20;;;;;;;7.73;6.90;;;9.20;99.90;;;;;;5075492;28;20623;-68
2023/05/08 03:18:52;;;;;;;7.10;6.50;;;9.20;99.90;;;;;;5075593;28;20454;-68
2023/05/08 03:21:21;;;;;;;8.30;6.93;;;9.30;99.90;;;;;;5075675;28;20452;-68
2023/05/08 03:23:53;;;;;;;8.00;7.20;;;9.20;99.90;;;;;;5076051;28;20929;-68
2023/05/08 03:26:21;;;;;;;9.20;7.50;;;9.20;99.90;;;;;;5074876;28;20565;-68
2023/05/08 03:28:49;;;;;;;8.10;7.30;;;9.20;99.90;;;;;;5074926;28;20468;-68
2023/05/08 03:31:19;;;;;;;7.40;6.70;;;9.10;99.90;;;;;;5075417;28;20465;-69
2023/05/08 03:33:47;;;;;;;8.30;7.60;;;9.00;99.90;;;;;;5074936;28;20442;-68
2023/05/08 03:36:15;;;;;;;7.53;6.73;;;9.10;99.90;;;;;;5075302;28;20464;-69
2023/05/08 03:38:42;;;;;;;7.70;6.87;;;9.10;99.90;;;;;;5074766;28;20482;-69
2023/05/08 03:41:10;;;;;;;7.47;6.80;;;9.10;99.90;;;;;;5075077;28;20800;-69
2023/05/08 03:43:37;;;;;;;8.73;7.10;;;9.20;99.90;;;;;;5074640;28;20909;-69
2023/05/08 03:46:05;;;;;;;7.03;6.33;;;9.10;99.90;;;;;;5074851;28;20451;-69
2023/05/08 03:48:33;;;;;;;7.40;6.70;;;9.20;99.90;;;;;;5074490;28;20550;-68
2023/05/08 03:51:02;;;;;;;7.40;6.70;;;9.20;99.90;;;;;;5074453;28;20451;-68
2023/05/08 03:53:29;;;;;;;7.90;7.17;;;9.20;99.90;;;;;;5074538;28;20470;-69
2023/05/08 03:55:57;;;;;;;7.80;7.00;;;9.10;99.90;;;;;;5074030;28;20941;-68
2023/05/08 03:58:34;;;;;;;8.70;7.90;;;9.20;99.90;;;;;;5074581;28;20481;-68
2023/05/08 04:01:07;;;;;;;8.77;7.07;;;9.20;99.90;;;;;;5074518;28;20454;-68
2023/05/08 04:03:47;;;;;;;7.40;6.53;;;9.20;99.90;;;;;;5074509;28;20445;-68
2023/05/08 04:06:25;;;;;;;8.23;7.43;;;9.10;99.90;;;;;;5074567;28;20541;-68
2023/05/08 04:09:01;;;;;;;8.47;7.20;;;9.00;99.90;;;;;;5074762;28;20446;-69
2023/05/08 04:11:35;;;;;;;8.00;6.67;;;9.10;99.90;;;;;;5075154;28;20754;-68
2023/05/08 04:14:06;;;;;;;10.30;7.00;;;9.10;99.90;;;;;;5075269;28;20453;-68
2023/05/08 04:16:38;;;;;;;7.90;7.20;;;9.10;99.90;;;;;;5074555;28;20891;-69
2023/05/08 04:19:11;;;;;;;9.30;7.90;;;9.20;99.90;;;;;;5074128;28;20481;-68
2023/05/08 04:21:43;;;;;;;8.00;7.30;;;9.10;99.90;;;;;;5074527;28;20835;-69
2023/05/08 04:24:14;;;;;;;8.13;7.27;;;9.20;99.90;;;;;;5077091;28;20817;-68
2023/05/08 04:26:42;;;;;;;9.43;8.30;;;9.20;99.90;;;;;;5077827;28;20466;-68
2023/05/08 04:29:11;;;;;;;8.27;7.47;;;9.10;99.90;;;;;;5077805;28;20457;-68
2023/05/08 04:31:39;;;;;;;7.97;7.17;;;9.00;99.90;;;;;;5078157;28;20457;-68
2023/05/08 04:34:08;;;;;;;9.37;8.07;;;9.00;99.90;;;;;;5077484;28;20472;-68
2023/05/08 04:36:35;;;;;;;9.47;7.80;;;9.00;99.90;;;;;;5077498;28;20450;-68
2023/05/08 04:39:02;;;;;;;8.80;7.90;;;9.10;99.90;;;;;;5077634;28;20576;-68
2023/05/08 04:41:29;;;;;;;9.13;6.93;;;9.10;99.90;;;;;;5077452;28;20894;-68
2023/05/08 04:43:56;;;;;;;9.17;7.53;;;9.20;99.90;;;;;;5077660;28;20922;-68
2023/05/08 04:46:24;;;;;;;8.20;7.30;;;9.10;99.90;;;;;;5077327;28;20545;-68
2023/05/08 04:48:51;;;;;;;8.40;7.23;;;9.20;99.90;;;;;;5077613;28;20863;-68
2023/05/08 04:51:18;;;;;;;10.53;8.63;;;9.20;99.90;;;;;;5077419;28;20927;-68
2023/05/08 04:53:45;;;;;;;18.93;14.37;;;9.30;99.90;;;;;;5077148;28;20497;-68
2023/05/08 04:56:12;;;;;;;12.43;10.87;;;9.30;99.90;;;;;;5077471;28;20454;-68
2023/05/08 04:58:39;;;;;;;8.47;6.50;;;9.30;99.90;;;;;;5077739;28;20446;-68
2023/05/08 05:01:06;;;;;;;7.00;6.30;;;9.30;99.90;;;;;;5077589;28;20462;-68
2023/05/08 05:03:34;;;;;;;7.90;7.20;;;9.40;99.90;;;;;;5077629;28;20458;-68
2023/05/08 05:06:01;;;;;;;9.53;7.60;;;9.30;99.90;;;;;;5077306;28;20480;-68
2023/05/08 05:08:28;;;;;;;6.80;6.10;;;9.30;99.90;;;;;;5077673;28;20492;-68
2023/05/08 05:10:55;;;;;;;8.07;6.60;;;9.30;99.90;;;;;;5077247;28;20567;-68
2023/05/08 05:13:22;;;;;;;7.87;7.07;;;9.30;99.90;;;;;;5076962;28;20468;-69
2023/05/08 05:15:50;;;;;;;8.87;7.37;;;9.30;99.90;;;;;;5077327;28;20458;-68
2023/05/08 05:18:17;;;;;;;7.23;6.33;;;9.40;99.90;;;;;;5077053;28;20450;-68
2023/05/08 05:20:46;;;;;;;8.53;7.33;;;9.40;99.90;;;;;;5077266;28;20918;-68
2023/05/08 05:23:13;;;;;;;7.60;6.90;;;9.40;99.90;;;;;;5077366;28;20457;-68
2023/05/08 05:25:40;;;;;;;10.17;6.90;;;9.40;99.90;;;;;;5077069;28;20547;-68
2023/05/08 05:28:07;;;;;;;6.70;6.00;;;9.40;99.90;;;;;;5076908;28;20482;-67
2023/05/08 05:30:34;;;;;;;8.23;7.10;;;9.50;99.90;;;;;;5077147;28;20741;-67
2023/05/08 05:33:00;;;;;;;7.43;6.33;;;9.30;99.90;;;;;;5076758;28;20454;-67
2023/05/08 05:35:27;;;;;;;8.30;6.97;;;9.30;99.90;;;;;;5076528;28;20484;-68
2023/05/08 05:37:55;;;;;;;6.70;6.00;;;9.40;99.90;;;;;;5076888;28;20478;-68
2023/05/08 05:40:22;;;;;;;7.83;6.27;;;9.50;99.90;;;;;;5076716;28;20529;-67
2023/05/08 05:42:49;;;;;;;10.60;7.80;;;9.50;99.90;;;;;;5076805;28;20461;-68
2023/05/08 05:45:17;;;;;;;8.10;6.30;;;9.50;99.90;;;;;;5077096;28;20469;-68
2023/05/08 05:47:48;;;;;;;9.67;6.50;;;9.50;99.90;;;;;;5076759;28;20573;-68
2023/05/08 05:50:17;;;;;;;6.97;6.20;;;9.50;99.90;;;;;;5076555;28;20465;-68
2023/05/08 05:52:44;;;;;;;6.57;5.97;;;9.60;99.90;;;;;;5077044;28;20792;-68
2023/05/08 05:55:12;;;;;;;8.37;6.03;;;9.60;99.90;;;;;;5076864;28;20545;-68
2023/05/08 05:57:39;;;;;;;6.30;5.60;;;9.50;99.90;;;;;;5076395;28;20450;-68
2023/05/08 06:00:07;;;;;;;7.60;6.10;;;9.50;99.90;;;;;;5076675;28;20461;-69
2023/05/08 06:02:36;;;;;;;7.20;6.50;;;9.60;99.90;;;;;;5076710;28;20466;-68
2023/05/08 06:05:03;;;;;;;8.80;5.80;;;9.70;99.90;;;;;;5077210;28;20544;-68
2023/05/08 06:07:30;;;;;;;5.70;5.20;;;9.80;99.90;;;;;;5076410;28;20539;-68
2023/05/08 06:09:57;;;;;;;8.03;6.20;;;9.70;99.90;;;;;;5076050;28;20969;-68
2023/05/08 06:12:26;;;;;;;6.40;5.33;;;9.70;99.90;;;;;;5076660;28;20549;-68
2023/05/08 06:14:54;;;;;;;5.37;4.87;;;9.80;99.90;;;;;;5076454;28;20505;-68
2023/05/08 06:17:21;;;;;;;6.50;5.10;;;9.70;99.90;;;;;;5075910;28;20507;-68
2023/05/08 06:19:49;;;;;;;5.57;4.50;;;9.80;99.90;;;;;;5076704;28;20969;-68
2023/05/08 06:22:17;;;;;;;5.20;4.80;;;9.80;99.90;;;;;;5076645;28;20516;-68
2023/05/08 06:24:44;;;;;;;4.87;4.00;;;9.90;99.90;;;;;;5076650;28;20792;-68
2023/05/08 06:27:10;;;;;;;4.80;4.30;;;10.00;99.90;;;;;;5076028;28;20569;-68
2023/05/08 06:29:39;;;;;;;4.63;4.23;;;10.10;99.90;;;;;;5076524;28;20464;-68
2023/05/08 06:32:06;;;;;;;5.67;4.93;;;10.10;99.90;;;;;;5076355;28;20454;-68
2023/05/08 06:34:33;;;;;;;5.03;4.13;;;10.00;99.90;;;;;;5076117;28;20464;-68
2023/05/08 06:37:00;;;;;;;4.97;4.43;;;10.00;99.90;;;;;;5076156;28;20583;-68
2023/05/08 06:39:27;;;;;;;5.70;4.60;;;10.10;99.90;;;;;;5076096;28;20962;-68
2023/05/08 06:41:53;;;;;;;5.73;4.83;;;10.30;99.90;;;;;;5076473;28;20455;-68
2023/05/08 06:44:20;;;;;;;5.77;5.10;;;10.30;99.90;;;;;;5076958;28;20454;-68
2023/05/08 06:46:49;;;;;;;5.20;4.50;;;10.40;99.90;;;;;;5075936;28;20790;-68
2023/05/08 06:49:15;;;;;;;5.10;4.60;;;10.40;99.90;;;;;;5075912;28;20516;-68
2023/05/08 06:51:42;;;;;;;7.40;6.70;;;10.40;99.90;;;;;;5075973;28;20534;-68
2023/05/08 06:54:09;;;;;;;4.83;4.33;;;10.50;99.90;;;;;;5076141;28;21022;-67
2023/05/08 06:56:36;;;;;;;4.40;3.80;;;10.50;99.90;;;;;;5076403;28;20462;-67
2023/05/08 06:59:03;;;;;;;7.60;3.60;;;10.60;99.90;;;;;;5076550;28;20460;-67
2023/05/08 07:01:30;;;;;;;4.10;3.70;;;10.60;99.90;;;;;;5076216;28;20794;-67
2023/05/08 07:03:58;;;;;;;4.63;4.07;;;10.70;99.90;;;;;;5075910;28;20823;-67
2023/05/08 07:06:26;;;;;;;6.60;4.57;;;10.70;99.90;;;;;;5076268;28;20458;-67
2023/05/08 07:08:53;;;;;;;4.93;3.60;;;10.80;99.90;;;;;;5076895;28;20509;-68
2023/05/08 07:11:20;;;;;;;5.00;4.03;;;11.00;99.90;;;;;;5077319;28;20490;-68
2023/05/08 07:13:47;;;;;;;4.03;3.70;;;10.90;99.90;;;;;;5077143;28;20604;-68
2023/05/08 07:16:14;;;;;;;4.27;3.87;;;11.00;99.90;;;;;;5077182;28;20733;-68
2023/05/08 07:18:41;;;;;;;4.77;3.87;;;11.10;99.90;;;;;;5076546;28;20910;-68
2023/05/08 07:21:09;;;;;;;6.83;3.70;;;11.10;99.90;;;;;;5076413;28;20460;-68
2023/05/08 07:23:36;;;;;;;7.97;4.43;;;11.10;99.90;;;;;;5076536;28;20495;-68
2023/05/08 07:26:03;;;;;;;3.67;3.37;;;11.20;99.90;;;;;;5076867;28;20468;-68
2023/05/08 07:28:30;;;;;;;7.60;3.67;;;11.20;99.90;;;;;;5077199;28;20514;-68
2023/05/08 07:30:57;;;;;;;4.40;4.00;;;11.30;99.90;;;;;;5077710;28;20505;-68
2023/05/08 07:33:23;;;;;;;5.07;3.50;;;11.30;99.90;;;;;;5076989;28;20458;-68
2023/05/08 07:35:51;;;;;;;4.07;3.20;;;11.40;99.90;;;;;;5077039;28;20469;-68
2023/05/08 07:38:19;;;;;;;5.50;4.17;;;11.40;99.90;;;;;;5076443;28;20493;-68
2023/05/08 07:40:47;;;;;;;4.73;3.43;;;11.50;99.90;;;;;;5076041;28;20923;-68
2023/05/08 07:43:15;;;;;;;4.63;3.40;;;11.50;99.90;;;;;;5076158;28;20841;-68
2023/05/08 07:45:42;;;;;;;3.50;3.13;;;11.50;99.90;;;;;;5076651;28;20508;-68
2023/05/08 07:48:09;;;;;;;3.70;3.27;;;11.50;99.90;;;;;;5075960;28;20474;-68
2023/05/08 07:50:36;;;;;;;5.23;3.27;;;11.60;99.90;;;;;;5077019;28;20859;-68
2023/05/08 07:53:03;;;;;;;5.80;3.67;;;11.70;99.90;;;;;;5076536;28;20458;-68
2023/05/08 07:55:31;;;;;;;4.27;3.87;;;11.80;99.90;;;;;;5076959;28;21003;-68
2023/05/08 07:57:58;;;;;;;4.13;3.50;;;11.90;99.90;;;;;;5079235;28;20446;-68
2023/05/08 08:00:27;;;;;;;4.03;3.20;;;11.90;99.90;;;;;;5080210;28;20476;-68
2023/05/08 08:02:54;;;;;;;4.40;3.60;;;12.00;99.90;;;;;;5080028;28;20461;-68
2023/05/08 08:05:21;;;;;;;13.30;5.60;;;12.10;99.90;;;;;;5080124;28;20482;-68
2023/05/08 08:07:48;;;;;;;3.40;3.10;;;12.20;99.90;;;;;;5080064;28;20532;-68
2023/05/08 08:10:15;;;;;;;6.90;3.00;;;12.30;99.90;;;;;;5080436;28;20461;-68
2023/05/08 08:12:43;;;;;;;3.53;3.00;;;12.30;99.90;;;;;;5079780;28;20557;-68
2023/05/08 08:15:10;;;;;;;4.23;3.40;;;12.50;99.90;;;;;;5079841;28;20497;-67
2023/05/08 08:17:37;;;;;;;6.43;3.10;;;12.60;99.90;;;;;;5079639;28;20458;-69
2023/05/08 08:20:05;;;;;;;3.90;3.00;;;12.60;99.90;;;;;;5079546;28;20466;-67
2023/05/08 08:22:32;;;;;;;3.00;2.63;;;12.70;99.90;;;;;;5079570;28;20454;-69
2023/05/08 08:24:59;;;;;;;2.97;2.67;;;12.80;99.90;;;;;;5079223;28;20454;-68
2023/05/08 08:27:26;;;;;;;4.30;3.50;;;12.70;99.90;;;;;;5078901;28;20500;-68
2023/05/08 08:29:54;;;;;;;3.77;3.33;;;12.80;99.90;;;;;;5079100;28;20464;-68
2023/05/08 08:32:21;;;;;;;3.13;2.83;;;12.90;99.90;;;;;;5078302;28;20484;-68
2023/05/08 08:34:48;;;;;;;3.50;2.93;;;12.90;99.50;;;;;;5078028;28;20458;-68
2023/05/08 08:37:15;;;;;;;2.87;2.63;;;13.00;98.70;;;;;;5077745;28;20454;-68
2023/05/08 08:39:42;;;;;;;3.60;2.80;;;13.10;97.20;;;;;;5077762;28;20484;-68
2023/05/08 08:42:08;;;;;;;3.00;2.70;;;13.20;96.80;;;;;;5077801;28;20465;-68
2023/05/08 08:44:36;;;;;;;3.70;3.03;;;13.30;96.90;;;;;;5077700;28;20454;-68
2023/05/08 08:47:06;;;;;;;3.47;3.17;;;13.30;95.40;;;;;;5077801;28;20544;-68
2023/05/08 08:49:35;;;;;;;3.37;2.90;;;13.30;94.80;;;;;;5077680;28;20524;-68
2023/05/08 08:52:06;;;;;;;3.03;2.73;;;13.40;95.20;;;;;;5077789;28;20464;-69
2023/05/08 08:54:35;;;;;;;2.80;2.30;;;13.50;95.60;;;;;;5077072;28;20458;-70
2023/05/08 08:57:05;;;;;;;3.07;2.60;;;13.60;92.50;;;;;;5077884;28;20454;-69
2023/05/08 08:59:33;;;;;;;2.50;2.30;;;13.60;92.10;;;;;;5077853;28;20481;-69
2023/05/08 09:02:06;;;;;;;3.90;2.80;;;13.60;88.50;;;;;;5078358;28;20493;-67
2023/05/08 09:04:32;;;;;;;2.40;2.20;;;13.60;83.30;;;;;;5077387;28;20478;-69
2023/05/08 09:07:01;;;;;;;3.50;2.83;;;13.70;84.00;;;;;;5077226;28;20461;-69
2023/05/08 09:09:28;;;;;;;4.67;2.77;;;13.80;84.30;;;;;;5077101;28;20555;-69
2023/05/08 09:11:55;;;;;;;2.50;2.30;;;13.90;78.20;;;;;;5077135;28;20454;-69
2023/05/08 09:14:24;;;;;;;2.50;2.30;;;13.90;78.10;;;;;;5077140;28;20487;-69
2023/05/08 09:16:51;;;;;;;3.67;2.33;;;14.10;76.80;;;;;;5077196;28;20845;-68
2023/05/08 09:19:20;;;;;;;3.10;2.53;;;14.20;75.00;;;;;;5077141;28;20545;-68
2023/05/08 09:21:47;;;;;;;3.70;2.57;;;14.20;73.20;;;;;;5077160;28;20468;-68
2023/05/08 09:24:13;;;;;;;6.03;2.97;;;14.20;71.20;;;;;;5077548;28;20504;-69
2023/05/08 09:26:41;;;;;;;2.93;2.53;;;14.30;70.50;;;;;;5077133;28;20458;-69
2023/05/08 09:29:11;;;;;;;2.93;2.70;;;14.40;71.40;;;;;;5076956;28;20574;-68
2023/05/08 09:31:40;;;;;;;5.20;2.50;;;14.50;68.30;;;;;;5077170;28;20540;-69
2023/05/08 09:34:07;;;;;;;3.10;2.30;;;14.50;69.80;;;;;;5077707;28;20458;-69
2023/05/08 09:36:35;;;;;;;6.27;2.50;;;14.60;70.10;;;;;;5077526;28;20464;-69
2023/05/08 09:39:02;;;;;;;4.13;2.43;;;14.70;68.40;;;;;;5076845;28;20521;-68
2023/05/08 09:41:30;;;;;;;3.03;2.37;;;14.80;68.90;;;;;;5077101;28;20533;-68
2023/05/08 09:44:04;;;;;;;3.00;2.37;;;14.80;68.50;;;;;;5077682;28;20755;-68
2023/05/08 09:46:32;;;;;;;2.70;2.50;;;14.80;64.30;;;;;;5076821;28;20900;-68
2023/05/08 09:49:00;;;;;;;3.33;2.60;;;14.90;64.70;;;;;;5077187;28;20946;-68
2023/05/08 09:51:29;;;;;;;2.37;2.00;;;15.00;63.90;;;;;;5076341;28;20937;-68
2023/05/08 09:53:58;;;;;;;2.33;2.13;;;15.00;62.60;;;;;;5076894;28;20454;-68
2023/05/08 09:56:32;;;;;;;4.33;2.30;;;15.10;61.10;;;;;;5076827;28;20780;-68
2023/05/08 09:58:59;;;;;;;2.77;2.30;;;15.10;60.30;;;;;;5076692;28;20453;-68
2023/05/08 10:01:31;;;;;;;3.23;2.50;;;15.20;59.50;;;;;;5076417;28;20787;-68
2023/05/08 10:03:58;;;;;;;5.20;2.53;;;15.20;60.50;;;;;;5075851;28;20459;-67
2023/05/08 10:06:27;;;;;;;2.47;2.27;;;15.30;61.40;;;;;;5076212;28;20460;-68
2023/05/08 10:09:09;;;;;;;3.87;2.30;;;15.40;65.10;;;;;;5076035;28;20559;-68
2023/05/08 10:11:36;;;;;;;2.70;2.50;;;15.50;62.90;;;;;;5076399;28;20815;-69
2023/05/08 10:14:03;;;;;;;2.43;2.23;;;15.60;63.20;;;;;;5076363;28;20470;-69
2023/05/08 10:16:31;;;;;;;4.20;2.70;;;15.60;60.00;;;;;;5076073;28;20545;-69
2023/05/08 10:19:01;;;;;;;2.30;2.10;;;15.60;58.60;;;;;;5075961;28;20529;-69
2023/05/08 10:21:30;;;;;;;2.07;1.87;;;15.60;59.20;;;;;;5074730;28;20443;-69
2023/05/08 10:23:59;;;;;;;2.20;1.97;;;15.70;57.50;;;;;;5075857;28;20465;-68
2023/05/08 10:26:31;;;;;;;2.70;1.90;;;15.70;57.50;;;;;;5075764;28;20785;-69
2023/05/08 10:29:03;;;;;;;2.07;1.87;;;15.80;56.70;;;;;;5075760;28;20469;-69
2023/05/08 10:31:35;;;;;;;2.90;2.33;;;15.90;55.50;;;;;;5077315;28;20652;-69
2023/05/08 10:34:03;;;;;;;3.60;2.13;;;16.00;56.80;;;;;;5076964;28;20770;-69
2023/05/08 10:36:31;;;;;;;3.77;2.30;;;16.20;56.00;;;;;;5075996;28;20454;-68
2023/05/08 10:38:58;;;;;;;2.07;1.80;;;16.20;52.10;;;;;;5075629;28;20860;-68
2023/05/08 10:41:28;;;;;;;3.10;2.13;;;16.30;53.10;;;;;;5076048;28;20844;-69
2023/05/08 10:43:56;;;;;;;2.27;2.07;;;16.30;51.60;;;;;;5076319;28;20541;-69
2023/05/08 10:46:30;;;;;;;2.90;2.00;;;16.30;49.90;;;;;;5076024;28;20533;-69
2023/05/08 10:49:06;;;;;;;4.93;2.20;;;16.40;50.70;;;;;;5076568;28;20549;-69
2023/05/08 10:51:41;;;;;;;1.70;1.60;;;16.40;50.30;;;;;;5075722;28;20500;-69
2023/05/08 10:54:13;;;;;;;4.00;2.20;;;16.50;47.80;;;;;;5075291;28;20453;-68
2023/05/08 10:56:41;;;;;;;3.33;1.93;;;16.60;46.90;;;;;;5076012;28;20909;-68
2023/05/08 10:59:18;;;;;;;5.10;2.13;;;16.70;46.00;;;;;;5075290;28;20999;-68
2023/05/08 11:01:48;;;;;;;4.20;2.17;;;16.70;45.30;;;;;;5074816;28;20439;-68
2023/05/08 11:04:23;;;;;;;3.70;2.37;;;16.70;45.90;;;;;;5075040;28;20530;-68
2023/05/08 11:06:51;;;;;;;4.77;2.60;;;16.80;47.40;;;;;;5076182;28;20486;-68
2023/05/08 11:09:23;;;;;;;2.77;2.57;;;16.90;46.50;;;;;;5075544;28;20514;-69
2023/05/08 11:12:07;;;;;;;2.90;2.40;;;17.10;44.60;;;;;;5076670;28;20537;-68
2023/05/08 11:14:36;;;;;;;2.83;2.10;;;17.20;44.30;;;;;;5078988;28;20916;-68
2023/05/08 11:17:08;;;;;;;2.87;2.10;;;17.80;45.10;;;;;;5076827;28;20450;-69
2023/05/08 11:19:36;;;;;;;5.33;1.80;;;19.10;42.50;;;;;;5076764;28;20439;-69
2023/05/08 11:22:31;;;;;;;3.00;2.03;;;20.60;42.00;;;;;;5076858;28;20525;-69
2023/05/08 11:25:00;;;;;;;2.30;1.70;;;22.30;36.80;;;;;;5078075;28;20496;-68
2023/05/08 11:28:05;;;;;;;2.87;2.00;;;23.90;33.10;;;;;;5078993;28;20545;-69
2023/05/08 11:30:37;;;;;;;1.90;1.70;;;25.10;32.00;;;;;;5080914;28;20533;-69
2023/05/08 11:33:36;;;;;;;3.10;1.77;;;26.40;27.80;;;;;;5081034;28;20473;-69
2023/05/08 11:36:13;;;;;;;2.00;1.80;;;27.60;25.00;;;;;;5083299;28;20551;-69
2023/05/08 11:38:42;;;;;;;4.60;2.20;;;28.70;21.60;;;;;;5081598;28;20513;-69
2023/05/08 11:41:10;;;;;;;2.73;2.07;;;28.80;20.00;;;;;;5082392;28;20990;-68
2023/05/08 11:44:13;;;;;;;3.67;3.10;;;29.20;19.00;;;;;;5083656;28;20447;-69
2023/05/08 11:46:42;;;;;;;2.80;2.03;;;29.90;18.10;;;;;;5083238;28;20517;-69
2023/05/08 11:49:15;;;;;;;2.40;1.93;;;30.40;17.20;;;;;;5082843;28;20538;-69
2023/05/08 11:51:44;;;;;;;3.40;1.80;;;30.90;15.90;;;;;;5082198;28;20509;-69
2023/05/08 11:54:14;;;;;;;2.13;1.67;;;30.70;16.20;;;;;;5082832;28;20454;-69
2023/05/08 11:56:41;;;;;;;2.00;1.90;;;31.20;14.20;;;;;;5082752;28;20495;-68
2023/05/08 11:59:09;;;;;;;3.30;1.83;;;31.70;14.80;;;;;;5082766;28;20853;-69
2023/05/08 12:01:37;;;;;;;2.60;2.20;;;31.60;12.90;;;;;;5083008;28;20537;-69
2023/05/08 12:04:05;;;;;;;2.93;1.90;;;32.00;13.50;;;;;;5077058;28;20554;-68
2023/05/08 12:06:33;;;;;;;2.17;1.97;;;32.50;13.00;;;;;;5074246;28;20464;-68
2023/05/08 12:09:03;;;;;;;2.10;1.90;;;33.00;12.80;;;;;;5074099;28;20966;-68
2023/05/08 12:11:30;;;;;;;3.00;2.03;;;33.30;12.70;;;;;;5075726;28;20531;-69
2023/05/08 12:13:57;;;;;;;3.17;1.93;;;33.50;11.90;;;;;;5074634;28;20549;-67
2023/05/08 12:16:25;;;;;;;2.10;1.90;;;33.90;12.10;;;;;;5074030;28;20496;-68
2023/05/08 12:18:55;;;;;;;1.63;1.53;;;34.50;11.40;;;;;;5074116;28;20466;-68
2023/05/08 12:21:22;;;;;;;8.83;1.87;;;34.20;9.40;;;;;;5074428;28;20915;-68
2023/05/08 12:23:49;;;;;;;2.27;2.00;;;33.30;9.40;;;;;;5074001;28;20466;-67
2023/05/08 12:26:17;;;;;;;2.33;1.83;;;32.50;9.50;;;;;;5074433;28;20465;-68
2023/05/08 12:28:47;;;;;;;3.70;1.97;;;31.70;9.50;;;;;;5074152;28;20486;-69
2023/05/08 12:31:14;;;;;;;2.50;2.00;;;31.30;11.00;;;;;;5074333;28;20465;-68
2023/05/08 12:33:42;;;;;;;2.07;1.80;;;31.50;10.70;;;;;;5074301;28;20462;-68
2023/05/08 12:36:10;;;;;;;4.37;2.00;;;31.90;11.30;;;;;;5074369;28;20583;-68
2023/05/08 12:38:37;;;;;;;3.60;2.37;;;32.30;10.60;;;;;;5074198;28;20485;-68
2023/05/08 12:41:08;;;;;;;5.10;2.33;;;32.60;10.70;;;;;;5073972;28;20460;-68
2023/05/08 12:43:36;;;;;;;7.00;1.80;;;32.90;9.00;;;;;;5074087;28;20889;-68
2023/05/08 12:46:04;;;;;;;2.60;1.80;;;33.00;8.80;;;;;;5078056;28;20453;-68
2023/05/08 12:48:31;;;;;;;2.70;1.97;;;32.50;8.20;;;;;;5077908;28;20537;-68
2023/05/08 12:51:10;;;;;;;2.33;2.13;;;32.20;8.80;;;;;;5077153;28;20966;-68
2023/05/08 12:53:38;;;;;;;2.27;1.80;;;31.70;8.70;;;;;;5077623;28;20836;-68
2023/05/08 12:56:05;;;;;;;2.03;1.87;;;31.70;9.40;;;;;;5077137;28;20458;-67
2023/05/08 12:58:33;;;;;;;2.07;1.87;;;31.90;9.80;;;;;;5077141;28;20468;-67
2023/05/08 13:01:11;;;;;;;3.80;1.67;;;32.30;9.50;;;;;;5077036;28;20486;-68
2023/05/08 13:03:39;;;;;;;3.27;1.90;;;32.40;7.70;;;;;;5077560;28;20446;-69